Time;durP1;ratioP1;P1;durP2;ratioP2;P2;SDS_P1;SDS_P2;PMS_P1;PMS_P2;Temp;Humidity;BMP_temperature;BMP_pressure;BME280_temperature;BME280_humidity;BME280_pressure;Samples;Min_cycle;Max_cycle;Signal;HPM_P1;HPM_P2
2021/11/22 00:02:14;;;;;;;7.20;3.95;;;8.50;99.10;;;;;;5014174;28;20520;-48
2021/11/22 00:04:40;;;;;;;6.22;3.90;;;8.50;99.20;;;;;;5013636;28;20057;-48
2021/11/22 00:07:05;;;;;;;8.63;3.67;;;8.50;99.10;;;;;;5012764;28;20315;-48
2021/11/22 00:09:33;;;;;;;7.22;3.55;;;8.50;99.20;;;;;;5013733;28;20033;-48
2021/11/22 00:11:59;;;;;;;8.85;4.18;;;8.50;99.10;;;;;;5014207;28;20026;-48
2021/11/22 00:14:24;;;;;;;10.70;4.32;;;8.40;99.00;;;;;;5023730;28;20092;-48
2021/11/22 00:16:50;;;;;;;9.57;3.85;;;8.50;99.20;;;;;;5032851;28;20025;-49
2021/11/22 00:19:16;;;;;;;6.78;3.33;;;8.50;99.30;;;;;;5033608;28;20021;-48
2021/11/22 00:21:42;;;;;;;7.78;4.10;;;8.50;99.10;;;;;;5032992;28;20448;-49
2021/11/22 00:24:07;;;;;;;5.95;3.25;;;8.50;99.10;;;;;;5033394;28;20036;-48
2021/11/22 00:26:33;;;;;;;9.52;4.03;;;8.50;99.00;;;;;;5032670;28;20187;-48
2021/11/22 00:28:59;;;;;;;7.07;3.58;;;8.50;99.20;;;;;;5026945;28;20359;-48
2021/11/22 00:31:24;;;;;;;8.70;4.50;;;8.50;99.20;;;;;;5013468;28;20030;-48
2021/11/22 00:33:51;;;;;;;7.82;4.53;;;8.50;99.20;;;;;;5013653;28;20025;-48
2021/11/22 00:36:17;;;;;;;7.85;4.68;;;8.50;99.10;;;;;;5012145;28;20033;-48
2021/11/22 00:38:43;;;;;;;8.73;4.07;;;8.50;99.30;;;;;;5012482;28;20026;-48
2021/11/22 00:41:08;;;;;;;7.88;4.45;;;8.50;99.20;;;;;;5013415;28;20466;-48
2021/11/22 00:43:34;;;;;;;8.10;3.95;;;8.50;99.20;;;;;;5014321;28;20326;-48
2021/11/22 00:45:59;;;;;;;7.28;3.42;;;8.50;99.10;;;;;;5032044;28;20064;-48
2021/11/22 00:48:25;;;;;;;12.60;4.22;;;8.50;99.20;;;;;;5032656;28;20334;-49
2021/11/22 00:50:53;;;;;;;9.15;4.30;;;8.50;99.30;;;;;;5032782;28;20017;-48
2021/11/22 00:53:19;;;;;;;12.40;4.18;;;8.50;99.30;;;;;;5032751;28;20112;-48
2021/11/22 00:55:45;;;;;;;9.02;3.72;;;8.50;99.20;;;;;;5032045;28;20116;-48
2021/11/22 00:58:11;;;;;;;10.05;4.68;;;8.50;99.20;;;;;;5032634;28;20471;-48
2021/11/22 01:00:36;;;;;;;10.52;4.10;;;8.50;99.30;;;;;;5014592;28;20113;-48
2021/11/22 01:03:03;;;;;;;11.05;4.50;;;8.50;99.30;;;;;;5012972;28;20413;-48
2021/11/22 01:05:29;;;;;;;9.43;4.45;;;8.50;99.20;;;;;;5012075;28;20076;-48
2021/11/22 01:07:55;;;;;;;9.70;4.43;;;8.50;99.20;;;;;;5012940;28;20018;-48
2021/11/22 01:10:22;;;;;;;9.75;4.32;;;8.50;99.20;;;;;;5012579;28;20018;-48
2021/11/22 01:12:49;;;;;;;12.68;4.82;;;8.50;99.20;;;;;;5012765;28;20047;-48
2021/11/22 01:15:18;;;;;;;10.45;5.03;;;8.50;99.30;;;;;;5024288;28;20060;-48
2021/11/22 01:17:45;;;;;;;9.17;4.57;;;8.50;99.10;;;;;;5032164;28;20035;-48
2021/11/22 01:20:13;;;;;;;10.50;4.45;;;8.50;99.10;;;;;;5032644;28;20024;-48
2021/11/22 01:22:39;;;;;;;9.40;4.95;;;8.50;99.00;;;;;;5031913;28;20034;-48
2021/11/22 01:25:08;;;;;;;16.73;5.63;;;8.50;99.00;;;;;;5032168;28;20491;-48
2021/11/22 01:27:35;;;;;;;11.40;5.30;;;8.50;99.30;;;;;;5032111;28;20041;-48
2021/11/22 01:30:05;;;;;;;11.45;5.32;;;8.50;99.30;;;;;;5021127;28;20510;-48
2021/11/22 01:32:31;;;;;;;17.17;6.05;;;8.50;99.20;;;;;;5012557;28;20036;-48
2021/11/22 01:34:57;;;;;;;16.30;5.55;;;8.50;99.20;;;;;;5012219;28;20377;-48
2021/11/22 01:37:22;;;;;;;13.90;6.25;;;8.50;99.30;;;;;;5011993;28;20030;-48
2021/11/22 01:39:48;;;;;;;10.25;5.60;;;8.50;99.20;;;;;;5010621;28;20104;-48
2021/11/22 01:42:14;;;;;;;13.32;5.88;;;8.50;99.20;;;;;;5011788;28;20038;-48
2021/11/22 01:44:39;;;;;;;16.65;6.47;;;8.50;99.30;;;;;;5017699;28;20030;-48
2021/11/22 01:47:05;;;;;;;16.10;5.85;;;8.50;99.30;;;;;;5031195;28;20057;-48
2021/11/22 01:49:31;;;;;;;11.45;5.03;;;8.50;99.30;;;;;;5014047;28;20064;-48
2021/11/22 01:51:56;;;;;;;16.27;6.57;;;8.50;99.50;;;;;;5031447;28;20025;-48
2021/11/22 01:54:22;;;;;;;14.23;5.72;;;8.50;99.40;;;;;;5031885;28;20032;-48
2021/11/22 01:56:48;;;;;;;9.93;6.03;;;8.50;99.40;;;;;;5030700;28;20440;-48
2021/11/22 01:59:15;;;;;;;9.75;5.07;;;8.50;99.40;;;;;;5011371;28;20421;-48
2021/11/22 02:01:41;;;;;;;14.90;6.07;;;8.50;99.30;;;;;;5011768;28;20061;-49
2021/11/22 02:04:07;;;;;;;12.27;5.13;;;8.50;99.50;;;;;;5011782;28;20049;-48
2021/11/22 02:06:32;;;;;;;17.00;5.70;;;8.50;99.40;;;;;;5010525;28;20126;-49
2021/11/22 02:08:58;;;;;;;14.70;6.10;;;8.50;99.30;;;;;;5011623;28;20429;-49
2021/11/22 02:11:23;;;;;;;13.60;6.72;;;8.50;99.50;;;;;;5011295;28;20080;-49
2021/11/22 02:13:49;;;;;;;14.38;6.20;;;8.50;99.20;;;;;;5011320;28;20117;-48
2021/11/22 02:16:15;;;;;;;15.57;6.75;;;8.50;99.50;;;;;;5027309;28;20025;-48
2021/11/22 02:18:44;;;;;;;19.17;6.13;;;8.50;99.40;;;;;;5031746;28;20407;-48
2021/11/22 02:21:11;;;;;;;16.27;5.82;;;8.50;99.50;;;;;;5031253;28;20030;-48
2021/11/22 02:23:36;;;;;;;12.02;5.20;;;8.50;99.20;;;;;;5030903;28;20029;-48
2021/11/22 02:26:02;;;;;;;16.02;7.22;;;8.50;99.30;;;;;;5030470;28;20044;-48
2021/11/22 02:28:28;;;;;;;14.80;6.47;;;8.50;99.50;;;;;;5030754;28;20029;-48
2021/11/22 02:30:53;;;;;;;18.05;6.97;;;8.50;99.60;;;;;;5017784;28;20031;-48
2021/11/22 02:33:24;;;;;;;15.00;5.97;;;8.50;99.40;;;;;;5011174;28;20424;-48
2021/11/22 02:35:53;;;;;;;13.18;6.20;;;8.50;99.40;;;;;;5011186;28;20041;-48
2021/11/22 02:38:20;;;;;;;18.08;6.38;;;8.50;99.60;;;;;;5009711;28;20033;-48
2021/11/22 02:40:47;;;;;;;24.88;7.00;;;8.50;99.50;;;;;;5011328;28;20034;-48
2021/11/22 02:43:13;;;;;;;17.58;6.13;;;8.50;99.50;;;;;;5011341;28;20058;-48
2021/11/22 02:45:39;;;;;;;16.70;6.75;;;8.50;99.40;;;;;;5019656;28;20070;-48
2021/11/22 02:48:05;;;;;;;14.73;6.22;;;8.50;99.40;;;;;;5031137;28;20025;-48
2021/11/22 02:50:30;;;;;;;15.15;5.75;;;8.50;99.50;;;;;;5031067;28;20025;-48
2021/11/22 02:52:56;;;;;;;16.27;6.05;;;8.50;99.40;;;;;;5030546;28;20172;-48
2021/11/22 02:55:22;;;;;;;15.57;6.40;;;8.50;99.40;;;;;;5030198;28;20035;-48
2021/11/22 02:57:49;;;;;;;12.07;6.38;;;8.50;99.60;;;;;;5030645;28;20034;-48
2021/11/22 03:00:23;;;;;;;15.25;6.20;;;8.50;99.60;;;;;;5024405;28;20032;-48
2021/11/22 03:02:50;;;;;;;17.20;5.88;;;8.50;99.50;;;;;;5011247;28;20112;-48
2021/11/22 03:05:16;;;;;;;13.70;6.18;;;8.50;99.50;;;;;;5010267;28;20033;-48
2021/11/22 03:07:43;;;;;;;15.65;6.75;;;8.50;99.40;;;;;;5010671;28;20057;-48
2021/11/22 03:10:12;;;;;;;11.60;5.25;;;8.50;99.50;;;;;;5010957;28;20280;-49
2021/11/22 03:12:37;;;;;;;15.13;6.75;;;8.50;99.50;;;;;;5011109;28;20030;-48
2021/11/22 03:15:08;;;;;;;17.75;6.15;;;8.50;99.40;;;;;;5012963;28;20379;-48
2021/11/22 03:17:33;;;;;;;16.00;6.95;;;8.50;99.40;;;;;;5030034;28;20483;-48
2021/11/22 03:19:59;;;;;;;18.10;5.90;;;8.50;99.50;;;;;;5032830;28;20022;-48
2021/11/22 03:22:24;;;;;;;14.15;6.28;;;8.50;99.50;;;;;;5034554;28;20460;-48
2021/11/22 03:24:50;;;;;;;11.70;5.70;;;8.50;99.40;;;;;;5034325;28;20245;-48
2021/11/22 03:27:15;;;;;;;14.02;6.55;;;8.50;99.30;;;;;;5033952;28;20041;-48
2021/11/22 03:29:41;;;;;;;16.27;5.95;;;8.50;99.60;;;;;;5034844;28;20021;-48
2021/11/22 03:32:07;;;;;;;17.80;6.20;;;8.50;99.50;;;;;;5014670;28;20500;-48
2021/11/22 03:34:33;;;;;;;14.57;6.53;;;8.50;99.70;;;;;;5014910;28;20022;-48
2021/11/22 03:37:02;;;;;;;17.30;6.93;;;8.50;99.50;;;;;;5013751;28;20018;-48
2021/11/22 03:39:30;;;;;;;12.15;6.13;;;8.50;99.40;;;;;;5016881;28;20460;-48
2021/11/22 03:41:57;;;;;;;13.63;6.25;;;8.50;99.40;;;;;;5033948;28;20029;-48
2021/11/22 03:44:24;;;;;;;14.57;6.80;;;8.50;99.40;;;;;;5034021;28;20029;-48
2021/11/22 03:46:52;;;;;;;18.65;7.25;;;8.50;99.70;;;;;;5032430;28;20041;-48
2021/11/22 03:49:19;;;;;;;15.55;6.15;;;8.60;99.90;;;;;;5034230;28;20029;-49
2021/11/22 03:51:45;;;;;;;13.65;5.20;;;8.50;99.60;;;;;;5033838;28;20033;-48
2021/11/22 03:54:11;;;;;;;15.80;5.32;;;8.50;99.80;;;;;;5033539;28;20022;-48
2021/11/22 03:56:40;;;;;;;19.77;6.57;;;8.50;99.70;;;;;;5033239;28;20461;-48
2021/11/22 03:59:07;;;;;;;13.85;6.20;;;8.60;99.70;;;;;;5033090;28;20472;-48
2021/11/22 04:01:33;;;;;;;16.65;6.45;;;8.50;99.70;;;;;;5020826;28;20457;-49
2021/11/22 04:03:59;;;;;;;17.38;6.53;;;8.50;99.60;;;;;;5014334;28;20030;-48
2021/11/22 04:06:24;;;;;;;13.30;5.68;;;8.50;99.50;;;;;;5013218;28;20457;-49
2021/11/22 04:08:50;;;;;;;16.33;6.43;;;8.50;99.70;;;;;;5013810;28;20030;-48
2021/11/22 04:11:16;;;;;;;17.02;6.47;;;8.50;99.70;;;;;;5013682;28;20049;-48
2021/11/22 04:13:42;;;;;;;15.32;6.15;;;8.50;99.90;;;;;;5013553;28;20026;-48
2021/11/22 04:16:10;;;;;;;13.10;6.47;;;8.50;99.50;;;;;;5020419;28;20087;-48
2021/11/22 04:18:35;;;;;;;13.95;6.78;;;8.50;99.70;;;;;;5033320;28;20460;-48
2021/11/22 04:21:01;;;;;;;13.20;6.07;;;8.50;99.80;;;;;;5033576;28;20029;-48
2021/11/22 04:23:28;;;;;;;13.13;5.38;;;8.50;99.60;;;;;;5033598;28;20387;-48
2021/11/22 04:25:53;;;;;;;15.40;6.50;;;8.50;99.60;;;;;;5032528;28;20042;-48
2021/11/22 04:28:19;;;;;;;14.27;5.47;;;8.50;99.50;;;;;;5033355;28;20024;-48
2021/11/22 04:30:45;;;;;;;14.73;6.60;;;8.50;99.60;;;;;;5028240;28;20041;-48
2021/11/22 04:33:11;;;;;;;14.70;6.35;;;8.50;99.90;;;;;;5013805;28;20412;-48
2021/11/22 04:35:37;;;;;;;19.75;7.60;;;8.60;99.90;;;;;;5012556;28;20510;-48
2021/11/22 04:38:03;;;;;;;16.48;7.30;;;8.50;99.80;;;;;;5011540;28;20040;-48
2021/11/22 04:40:29;;;;;;;13.93;5.88;;;8.50;99.60;;;;;;5013290;28;20322;-48
2021/11/22 04:42:55;;;;;;;19.45;6.45;;;8.50;99.60;;;;;;5013209;28;20036;-48
2021/11/22 04:45:28;;;;;;;17.30;6.78;;;8.50;99.80;;;;;;5012392;28;20026;-49
2021/11/22 04:47:54;;;;;;;17.25;6.38;;;8.50;99.70;;;;;;5032656;28;20030;-48
2021/11/22 04:50:20;;;;;;;18.52;6.70;;;8.50;99.60;;;;;;5032210;28;20018;-48
2021/11/22 04:52:48;;;;;;;15.02;5.68;;;8.50;99.60;;;;;;5032789;28;20040;-48
2021/11/22 04:55:16;;;;;;;18.23;6.60;;;8.50;99.70;;;;;;5031698;28;20036;-48
2021/11/22 04:57:42;;;;;;;17.88;7.97;;;8.50;99.60;;;;;;5032777;28;20471;-49
2021/11/22 05:00:10;;;;;;;17.60;6.82;;;8.50;99.60;;;;;;5032702;28;20033;-48
2021/11/22 05:02:38;;;;;;;22.50;6.82;;;8.50;99.70;;;;;;5015474;28;20087;-48
2021/11/22 05:05:05;;;;;;;14.98;6.57;;;8.60;99.80;;;;;;5011792;28;20026;-48
2021/11/22 05:07:31;;;;;;;15.40;6.13;;;8.60;99.90;;;;;;5013014;28;20037;-48
2021/11/22 05:09:56;;;;;;;19.83;7.82;;;8.50;99.50;;;;;;5012523;28;20018;-49
2021/11/22 05:12:22;;;;;;;12.43;5.97;;;8.50;99.90;;;;;;5012624;28;20026;-49
2021/11/22 05:14:47;;;;;;;19.10;7.45;;;8.50;99.80;;;;;;5012756;28;20109;-48
2021/11/22 05:17:13;;;;;;;13.93;6.80;;;8.50;99.70;;;;;;5023879;28;20026;-48
2021/11/22 05:19:39;;;;;;;22.60;7.22;;;8.60;99.80;;;;;;5032306;28;20025;-48
2021/11/22 05:22:04;;;;;;;15.57;5.90;;;8.50;99.50;;;;;;5032341;28;20357;-49
2021/11/22 05:24:30;;;;;;;17.52;6.72;;;8.50;99.90;;;;;;5032076;28;20033;-48
2021/11/22 05:26:57;;;;;;;25.65;8.20;;;8.60;99.80;;;;;;5031347;28;20437;-49
2021/11/22 05:29:23;;;;;;;22.83;7.45;;;8.50;99.60;;;;;;5032116;28;20427;-48
2021/11/22 05:31:49;;;;;;;15.45;7.00;;;8.50;99.80;;;;;;5023265;28;20064;-49
2021/11/22 05:34:17;;;;;;;14.35;6.45;;;8.60;99.80;;;;;;5012287;28;20053;-48
2021/11/22 05:36:44;;;;;;;17.35;7.18;;;8.50;99.80;;;;;;5028547;28;20037;-49
2021/11/22 05:39:10;;;;;;;16.15;6.45;;;8.50;99.80;;;;;;5029968;28;20029;-48
2021/11/22 05:41:36;;;;;;;13.35;4.88;;;8.50;99.70;;;;;;5030676;28;20109;-48
2021/11/22 05:44:03;;;;;;;13.65;6.05;;;8.60;99.90;;;;;;5031868;28;20067;-48
2021/11/22 05:46:28;;;;;;;14.77;5.30;;;8.50;99.90;;;;;;5029544;28;20095;-48
2021/11/22 05:48:54;;;;;;;10.23;5.18;;;8.50;99.90;;;;;;5031820;28;20025;-48
2021/11/22 05:51:20;;;;;;;14.32;5.95;;;8.50;99.90;;;;;;5032060;28;20101;-48
2021/11/22 05:53:48;;;;;;;12.50;5.00;;;8.60;99.90;;;;;;5031703;28;20030;-48
2021/11/22 05:56:16;;;;;;;13.45;5.72;;;8.60;99.90;;;;;;5030769;28;20038;-48
2021/11/22 05:58:43;;;;;;;13.50;5.25;;;8.50;99.90;;;;;;5031395;28;20083;-48
2021/11/22 06:01:08;;;;;;;13.25;5.88;;;8.50;99.70;;;;;;5030576;28;20041;-48
2021/11/22 06:03:34;;;;;;;14.77;5.38;;;8.50;99.60;;;;;;5031617;28;20022;-48
2021/11/22 06:06:00;;;;;;;8.43;4.47;;;8.60;99.70;;;;;;5031109;28;20021;-48
2021/11/22 06:08:26;;;;;;;13.38;5.43;;;8.50;99.90;;;;;;5030937;28;20388;-48
2021/11/22 06:10:52;;;;;;;14.45;5.18;;;8.60;99.90;;;;;;5030679;28;20029;-48
2021/11/22 06:13:20;;;;;;;10.80;5.05;;;8.60;99.90;;;;;;5031258;28;20433;-49
2021/11/22 06:15:46;;;;;;;13.20;5.68;;;8.60;99.80;;;;;;5030857;28;20038;-48
2021/11/22 06:18:13;;;;;;;12.00;4.72;;;8.50;99.90;;;;;;5029996;28;20498;-49
2021/11/22 06:20:39;;;;;;;8.38;4.60;;;8.60;99.80;;;;;;5031401;28;20033;-49
2021/11/22 06:23:05;;;;;;;11.55;5.05;;;8.60;99.90;;;;;;5031125;28;20040;-49
2021/11/22 06:25:31;;;;;;;9.95;4.22;;;8.50;99.60;;;;;;5030177;28;20029;-49
2021/11/22 06:27:57;;;;;;;14.85;4.70;;;8.60;99.90;;;;;;5031088;28;20038;-48
2021/11/22 06:30:23;;;;;;;12.90;5.65;;;8.60;99.90;;;;;;5029815;28;20028;-49
2021/11/22 06:32:49;;;;;;;12.55;5.45;;;8.60;99.90;;;;;;5018510;28;20045;-49
2021/11/22 06:35:18;;;;;;;10.48;4.60;;;8.60;99.90;;;;;;5010672;28;20034;-49
2021/11/22 06:37:43;;;;;;;13.65;5.47;;;8.60;99.90;;;;;;5011185;28;20037;-49
2021/11/22 06:40:09;;;;;;;13.45;5.30;;;8.60;99.90;;;;;;5009360;28;20018;-49
2021/11/22 06:42:36;;;;;;;11.25;5.05;;;8.60;99.90;;;;;;5011320;28;20072;-49
2021/11/22 06:45:03;;;;;;;12.93;4.97;;;8.50;99.70;;;;;;5010535;28;20041;-49
2021/11/22 06:47:28;;;;;;;10.63;4.35;;;8.50;99.70;;;;;;5018669;28;20060;-49
2021/11/22 06:49:55;;;;;;;9.20;4.50;;;8.60;99.90;;;;;;5031024;28;20025;-48
2021/11/22 06:52:21;;;;;;;13.13;5.13;;;8.50;99.90;;;;;;5031155;28;20087;-49
2021/11/22 06:54:48;;;;;;;13.88;5.13;;;8.60;99.90;;;;;;5030675;28;20025;-49
2021/11/22 06:57:14;;;;;;;11.43;4.78;;;8.60;99.90;;;;;;5029785;28;20352;-49
2021/11/22 06:59:41;;;;;;;10.95;4.80;;;8.60;99.90;;;;;;5030604;28;20037;-49
2021/11/22 07:02:12;;;;;;;9.25;4.43;;;8.60;99.80;;;;;;5025911;28;20029;-49
2021/11/22 07:04:38;;;;;;;9.18;4.18;;;8.60;99.90;;;;;;5011356;28;20065;-49
2021/11/22 07:07:04;;;;;;;10.88;4.32;;;8.60;99.90;;;;;;5010054;28;20120;-48
2021/11/22 07:09:30;;;;;;;10.75;5.00;;;8.60;99.90;;;;;;5010918;28;20022;-49
2021/11/22 07:11:55;;;;;;;13.73;5.47;;;8.60;99.90;;;;;;5011077;28;20053;-48
2021/11/22 07:14:22;;;;;;;18.90;4.35;;;8.60;99.90;;;;;;5011076;28;20084;-49
2021/11/22 07:16:49;;;;;;;10.45;4.45;;;8.60;99.90;;;;;;5010277;28;20018;-49
2021/11/22 07:19:15;;;;;;;7.32;3.80;;;8.60;99.90;;;;;;5030493;28;20029;-49
2021/11/22 07:21:41;;;;;;;11.20;4.78;;;8.60;99.90;;;;;;5030396;28;20045;-49
2021/11/22 07:24:07;;;;;;;9.80;3.97;;;8.60;99.90;;;;;;5030524;28;20034;-49
2021/11/22 07:26:33;;;;;;;8.55;3.80;;;8.60;99.90;;;;;;5029697;28;20033;-49
2021/11/22 07:28:59;;;;;;;13.43;4.43;;;8.60;99.90;;;;;;5030609;28;20033;-49
2021/11/22 07:31:25;;;;;;;13.15;4.68;;;8.60;99.90;;;;;;5030438;28;20368;-49
2021/11/22 07:33:50;;;;;;;9.27;3.83;;;8.60;99.90;;;;;;5013833;28;20301;-49
2021/11/22 07:36:16;;;;;;;12.07;4.10;;;8.60;99.90;;;;;;5009555;28;20057;-49
2021/11/22 07:38:42;;;;;;;7.78;3.90;;;8.60;99.90;;;;;;5008899;28;20026;-49
2021/11/22 07:41:07;;;;;;;10.43;4.25;;;8.60;99.90;;;;;;5010207;28;20033;-49
2021/11/22 07:43:33;;;;;;;9.43;3.88;;;8.60;99.90;;;;;;5011080;28;20102;-49
2021/11/22 07:45:59;;;;;;;11.30;4.72;;;8.60;99.90;;;;;;5010116;28;20033;-49
2021/11/22 07:48:24;;;;;;;7.60;3.50;;;8.60;99.90;;;;;;5021055;28;20064;-49
2021/11/22 07:50:50;;;;;;;7.90;2.97;;;8.60;99.90;;;;;;5030519;28;20372;-49
2021/11/22 07:53:16;;;;;;;9.68;3.85;;;8.60;99.90;;;;;;5030518;28;20448;-49
2021/11/22 07:55:43;;;;;;;10.70;3.70;;;8.60;99.90;;;;;;5029793;28;20021;-49
2021/11/22 07:58:09;;;;;;;9.88;3.47;;;8.60;99.90;;;;;;5030374;28;20235;-49
2021/11/22 08:00:34;;;;;;;6.10;3.15;;;8.60;99.90;;;;;;5030102;28;20504;-49
2021/11/22 08:03:00;;;;;;;7.53;3.50;;;8.60;99.90;;;;;;5021132;28;20038;-49
2021/11/22 08:05:27;;;;;;;8.02;3.50;;;8.60;99.90;;;;;;5010707;28;20404;-49
2021/11/22 08:07:55;;;;;;;5.68;2.92;;;8.60;99.90;;;;;;5014231;28;20037;-50
2021/11/22 08:12:48;;;;;;;5.10;2.72;;;8.60;99.90;;;;;;5014137;28;20026;-49
2021/11/22 08:15:14;;;;;;;6.38;2.90;;;8.60;99.90;;;;;;5012846;28;20037;-49
2021/11/22 08:17:42;;;;;;;5.55;2.60;;;8.60;99.90;;;;;;5015877;28;20033;-49
2021/11/22 08:20:10;;;;;;;3.70;2.22;;;8.60;99.90;;;;;;5033641;28;20029;-49
2021/11/22 08:22:36;;;;;;;6.18;3.15;;;8.60;99.90;;;;;;5033346;28;20156;-49
2021/11/22 08:25:03;;;;;;;4.45;2.72;;;8.60;99.90;;;;;;5032757;28;20091;-49
2021/11/22 08:27:29;;;;;;;8.23;3.33;;;8.60;99.90;;;;;;5033110;28;20040;-49
2021/11/22 08:30:03;;;;;;;4.70;2.83;;;8.60;99.90;;;;;;5033417;28;20117;-49
2021/11/22 08:32:29;;;;;;;8.18;3.63;;;8.60;99.90;;;;;;5031621;28;20064;-49
2021/11/22 08:34:55;;;;;;;6.97;3.15;;;8.60;99.90;;;;;;5032695;28;20025;-49
2021/11/22 08:37:20;;;;;;;7.13;3.13;;;8.60;99.90;;;;;;5032589;28;20479;-49
2021/11/22 08:39:46;;;;;;;5.88;2.92;;;8.70;99.90;;;;;;5033341;28;20061;-49
2021/11/22 08:42:12;;;;;;;5.00;2.90;;;8.70;99.90;;;;;;5033118;28;20014;-49
2021/11/22 08:44:38;;;;;;;5.68;2.97;;;8.60;99.90;;;;;;5032862;28;20033;-49
2021/11/22 08:47:04;;;;;;;6.55;3.17;;;8.60;99.90;;;;;;5032071;28;20045;-48
2021/11/22 08:49:30;;;;;;;6.85;3.08;;;8.70;99.90;;;;;;5016185;28;20413;-49
2021/11/22 08:51:56;;;;;;;4.85;2.90;;;8.60;99.90;;;;;;5013027;28;20030;-49
2021/11/22 08:54:22;;;;;;;7.07;3.42;;;8.60;99.90;;;;;;5013225;28;20350;-50
2021/11/22 08:56:48;;;;;;;6.00;2.33;;;8.70;99.90;;;;;;5012812;28;20026;-49
2021/11/22 08:59:15;;;;;;;7.43;3.75;;;8.70;99.90;;;;;;5012383;28;20041;-49
2021/11/22 09:01:42;;;;;;;6.95;3.25;;;8.70;99.90;;;;;;5013294;28;20133;-49
2021/11/22 09:04:08;;;;;;;9.68;3.15;;;8.70;99.90;;;;;;5023802;28;20448;-50
2021/11/22 09:06:34;;;;;;;6.05;3.10;;;8.70;99.90;;;;;;5032495;28;20112;-49
2021/11/22 09:09:02;;;;;;;10.98;3.17;;;8.70;99.90;;;;;;5033011;28;20032;-49
2021/11/22 09:11:28;;;;;;;4.25;2.67;;;8.70;99.90;;;;;;5031082;28;20047;-49
2021/11/22 09:13:53;;;;;;;9.57;3.28;;;8.70;99.90;;;;;;5032802;28;20511;-49
2021/11/22 09:16:26;;;;;;;6.00;2.60;;;8.70;99.90;;;;;;5031731;28;20587;-49
2021/11/22 09:18:52;;;;;;;5.75;2.67;;;8.60;99.90;;;;;;5031273;28;20025;-50
2021/11/22 09:21:18;;;;;;;5.70;2.83;;;8.70;99.90;;;;;;5030572;28;20025;-49
2021/11/22 09:23:46;;;;;;;4.60;2.47;;;8.70;99.90;;;;;;5031697;28;20033;-50
2021/11/22 09:26:11;;;;;;;5.32;3.10;;;8.70;99.90;;;;;;5031763;28;20096;-49
2021/11/22 09:28:37;;;;;;;3.78;2.47;;;8.70;99.90;;;;;;5032438;28;20456;-49
2021/11/22 09:31:03;;;;;;;6.60;2.30;;;8.70;99.90;;;;;;5032600;28;20057;-49
2021/11/22 09:33:28;;;;;;;4.88;2.47;;;8.70;99.90;;;;;;5026507;28;20065;-50
2021/11/22 09:35:54;;;;;;;8.52;2.60;;;8.70;99.90;;;;;;5011841;28;20112;-49
2021/11/22 09:38:19;;;;;;;3.67;2.20;;;8.70;99.90;;;;;;5011980;28;20018;-49
2021/11/22 09:40:45;;;;;;;2.60;2.00;;;8.70;99.90;;;;;;5012289;28;20026;-49
2021/11/22 09:43:11;;;;;;;2.97;1.83;;;8.70;99.90;;;;;;5012209;28;20025;-49
2021/11/22 09:45:37;;;;;;;3.22;2.13;;;8.70;99.90;;;;;;5011453;28;20492;-50
2021/11/22 09:48:04;;;;;;;2.67;2.10;;;8.70;99.90;;;;;;5011319;28;20485;-50
2021/11/22 09:50:31;;;;;;;2.88;1.83;;;8.70;99.90;;;;;;5011914;28;20472;-49
2021/11/22 09:52:57;;;;;;;2.40;1.85;;;8.70;99.90;;;;;;5011802;28;20072;-49
2021/11/22 09:55:23;;;;;;;4.78;2.58;;;8.70;99.90;;;;;;5011475;28;20021;-49
2021/11/22 09:57:48;;;;;;;2.72;1.83;;;8.70;99.90;;;;;;5012295;28;20365;-49
2021/11/22 10:00:15;;;;;;;3.40;2.45;;;8.70;99.90;;;;;;5012063;28;20407;-49
2021/11/22 10:02:43;;;;;;;3.25;2.08;;;8.70;99.80;;;;;;5011858;28;20452;-49
2021/11/22 10:05:30;;;;;;;4.20;2.35;;;8.70;99.90;;;;;;5026027;28;20464;-49
2021/11/22 10:08:09;;;;;;;3.33;2.33;;;8.70;99.90;;;;;;5031507;28;20033;-49
2021/11/22 10:10:51;;;;;;;4.20;2.42;;;8.70;99.90;;;;;;5031598;28;20026;-49
2021/11/22 10:13:24;;;;;;;7.97;2.40;;;8.70;99.90;;;;;;5030834;28;20572;-49
2021/11/22 10:15:52;;;;;;;2.60;1.90;;;8.70;99.90;;;;;;5030338;28;20021;-50
2021/11/22 10:18:20;;;;;;;3.13;2.33;;;8.70;99.90;;;;;;5031137;28;20037;-49
2021/11/22 10:20:46;;;;;;;4.15;2.60;;;8.70;99.80;;;;;;5030662;28;20033;-49
2021/11/22 10:23:12;;;;;;;4.82;2.22;;;8.70;99.90;;;;;;5030748;28;20404;-49
2021/11/22 10:25:43;;;;;;;4.80;2.35;;;8.70;99.90;;;;;;5029601;28;20033;-49
2021/11/22 10:28:18;;;;;;;4.35;2.30;;;8.70;99.70;;;;;;5030503;28;20334;-50
2021/11/22 10:30:50;;;;;;;2.35;1.85;;;8.70;99.90;;;;;;5031469;28;20029;-49
2021/11/22 10:33:21;;;;;;;4.95;2.85;;;8.70;99.90;;;;;;5030935;28;20075;-49
2021/11/22 10:35:48;;;;;;;4.50;2.20;;;8.70;99.80;;;;;;5009560;28;20026;-50
2021/11/22 10:38:32;;;;;;;4.05;2.40;;;8.70;99.90;;;;;;5011169;28;20060;-49
2021/11/22 10:41:08;;;;;;;3.83;2.70;;;8.70;99.90;;;;;;5011390;28;20054;-49
2021/11/22 10:43:42;;;;;;;2.45;1.73;;;8.80;99.90;;;;;;5011200;28;20033;-49
2021/11/22 10:46:10;;;;;;;2.28;1.98;;;8.70;99.80;;;;;;5010929;28;20124;-49
2021/11/22 10:48:37;;;;;;;5.30;2.65;;;8.70;99.90;;;;;;5011057;28;20105;-49
2021/11/22 10:51:14;;;;;;;4.20;2.58;;;8.80;99.90;;;;;;5029475;28;20419;-49
2021/11/22 10:53:44;;;;;;;6.63;2.83;;;8.70;99.80;;;;;;5031072;28;20084;-49
2021/11/22 10:56:19;;;;;;;4.78;2.58;;;8.70;99.70;;;;;;5030219;28;20029;-49
2021/11/22 10:58:52;;;;;;;3.58;2.45;;;8.70;99.90;;;;;;5030958;28;20046;-49
2021/11/22 11:01:23;;;;;;;4.88;2.95;;;8.70;99.90;;;;;;5030963;28;20164;-49
2021/11/22 11:03:57;;;;;;;4.75;2.95;;;8.70;99.80;;;;;;5030136;28;20056;-49
2021/11/22 11:06:42;;;;;;;3.40;2.40;;;8.80;99.90;;;;;;5010464;28;20042;-50
2021/11/22 11:09:11;;;;;;;7.25;3.13;;;8.80;99.90;;;;;;5011320;28;20022;-49
2021/11/22 11:11:36;;;;;;;6.18;2.42;;;8.80;99.60;;;;;;5010852;28;20032;-49
2021/11/22 11:14:05;;;;;;;2.53;1.67;;;8.70;99.60;;;;;;5011014;28;20026;-50
2021/11/22 11:16:30;;;;;;;4.88;2.85;;;8.80;99.90;;;;;;5010227;28;20211;-49
2021/11/22 11:19:02;;;;;;;6.05;3.20;;;8.80;99.70;;;;;;5010628;28;20040;-49
2021/11/22 11:21:31;;;;;;;3.38;2.38;;;8.80;99.60;;;;;;5011151;28;20030;-49
2021/11/22 11:23:58;;;;;;;5.10;3.60;;;8.80;99.90;;;;;;5010411;28;20024;-49
2021/11/22 11:26:25;;;;;;;4.90;2.72;;;8.80;99.80;;;;;;5009866;28;20045;-49
2021/11/22 11:28:52;;;;;;;5.35;2.70;;;8.80;99.90;;;;;;5010855;28;20025;-49
2021/11/22 11:31:17;;;;;;;5.50;2.85;;;8.80;99.70;;;;;;5010697;28;20453;-49
2021/11/22 11:33:43;;;;;;;4.93;2.90;;;8.80;99.80;;;;;;5010898;28;20030;-49
2021/11/22 11:36:31;;;;;;;10.10;3.00;;;8.80;99.50;;;;;;5026197;28;20132;-49
2021/11/22 11:39:24;;;;;;;5.53;3.00;;;8.80;99.80;;;;;;5030428;28;20402;-49
2021/11/22 11:42:11;;;;;;;5.07;2.72;;;8.80;99.90;;;;;;5014051;28;20095;-49
2021/11/22 11:44:57;;;;;;;6.45;3.38;;;8.80;99.70;;;;;;5033860;28;20391;-50
2021/11/22 11:47:44;;;;;;;5.45;3.28;;;8.80;99.80;;;;;;5034179;28;20037;-50
2021/11/22 11:50:31;;;;;;;6.13;3.53;;;8.80;99.90;;;;;;5025193;28;20274;-49
2021/11/22 11:53:00;;;;;;;5.40;2.90;;;8.80;99.90;;;;;;5012614;28;20453;-50
2021/11/22 11:55:26;;;;;;;6.88;3.65;;;8.80;99.90;;;;;;5013791;28;20021;-50
2021/11/22 11:58:14;;;;;;;6.30;4.15;;;8.80;99.90;;;;;;5014297;28;20068;-49
2021/11/22 12:01:06;;;;;;;6.13;3.83;;;8.80;99.90;;;;;;5014360;28;20113;-49
2021/11/22 12:04:00;;;;;;;7.93;3.17;;;8.80;99.40;;;;;;5014215;28;20026;-49
2021/11/22 12:06:45;;;;;;;6.65;3.80;;;8.80;99.90;;;;;;5029057;28;20037;-50
2021/11/22 12:09:27;;;;;;;10.30;4.05;;;8.80;99.90;;;;;;5033754;28;20037;-49
2021/11/22 12:11:53;;;;;;;8.95;3.67;;;8.80;99.90;;;;;;5033811;28;20333;-49
2021/11/22 12:14:47;;;;;;;10.40;4.25;;;8.80;99.90;;;;;;5033635;28;20570;-49
2021/11/22 12:17:35;;;;;;;8.43;3.40;;;8.80;99.90;;;;;;4931917;29;20035;-49
2021/11/22 12:20:07;;;;;;;6.03;3.72;;;8.80;99.80;;;;;;4932465;29;20043;-50
2021/11/22 12:22:47;;;;;;;11.43;3.63;;;8.80;99.80;;;;;;4933457;29;20451;-49
2021/11/22 12:25:37;;;;;;;6.97;3.70;;;8.80;99.90;;;;;;4932786;29;20049;-50
2021/11/22 12:28:19;;;;;;;6.60;4.00;;;8.80;99.90;;;;;;4936245;29;20384;-50
2021/11/22 12:30:47;;;;;;;8.82;4.43;;;8.80;99.90;;;;;;4937212;29;20023;-50
2021/11/22 12:33:24;;;;;;;6.63;4.22;;;8.80;99.70;;;;;;4952567;29;20038;-49
2021/11/22 12:36:01;;;;;;;5.25;3.38;;;8.80;99.90;;;;;;4936039;29;20098;-49
2021/11/22 12:38:27;;;;;;;6.55;3.97;;;8.80;99.90;;;;;;4933631;29;20038;-49
2021/11/22 12:40:59;;;;;;;8.38;3.25;;;8.90;99.90;;;;;;4932720;29;20036;-49
2021/11/22 12:43:38;;;;;;;7.32;3.83;;;8.80;99.80;;;;;;4931927;29;20434;-50
2021/11/22 12:46:05;;;;;;;8.00;4.05;;;8.80;99.60;;;;;;4951175;29;20125;-49
2021/11/22 12:48:39;;;;;;;7.30;3.80;;;8.80;99.90;;;;;;4952316;29;20185;-49
2021/11/22 12:51:09;;;;;;;6.32;3.20;;;8.90;99.90;;;;;;4939354;29;20039;-50
2021/11/22 12:53:35;;;;;;;7.10;4.13;;;8.90;99.90;;;;;;4959164;28;20476;-50
2021/11/22 12:56:03;;;;;;;6.07;4.00;;;8.80;99.80;;;;;;5012412;28;20040;-50
2021/11/22 12:58:32;;;;;;;4.93;3.08;;;8.80;99.80;;;;;;5012936;28;20038;-50
2021/11/22 13:00:59;;;;;;;9.00;3.60;;;8.90;99.90;;;;;;5023905;28;20093;-50